Time;durP1;ratioP1;P1;durP2;ratioP2;P2;SDS_P1;SDS_P2;PMS_P1;PMS_P2;Temp;Humidity;BMP_temperature;BMP_pressure;BME280_temperature;BME280_humidity;BME280_pressure;Samples;Min_cycle;Max_cycle;Signal;HPM_P1;HPM_P2
2022/12/14 00:01:57;;;;;;;15.93;10.57;;;-1.30;99.90;;;;;;5104521;27;20218;-81
2022/12/14 00:04:25;;;;;;;15.48;10.65;;;-1.30;99.90;;;;;;5107106;28;20274;-80
2022/12/14 00:06:53;;;;;;;13.10;10.38;;;-1.30;99.90;;;;;;5099290;27;20191;-82
2022/12/14 00:09:23;;;;;;;14.68;9.85;;;-1.40;99.90;;;;;;5099731;28;21035;-80
2022/12/14 00:11:51;;;;;;;13.88;9.60;;;-1.40;99.90;;;;;;5102780;27;20208;-79
2022/12/14 00:14:19;;;;;;;15.70;9.70;;;-1.40;99.90;;;;;;5097231;28;20243;-80
2022/12/14 00:16:47;;;;;;;14.40;8.43;;;-1.30;99.90;;;;;;5097739;28;20256;-81
2022/12/14 00:19:15;;;;;;;12.10;9.50;;;-1.10;99.90;;;;;;5101217;28;20199;-79
2022/12/14 00:21:44;;;;;;;15.27;9.88;;;-1.20;99.90;;;;;;5098719;27;20198;-80
2022/12/14 00:24:12;;;;;;;15.30;9.73;;;-1.30;99.90;;;;;;5098135;28;20241;-81
2022/12/14 00:26:42;;;;;;;11.60;9.35;;;-1.50;1.00;;;;;;5098284;27;20204;-81
2022/12/14 00:29:10;;;;;;;12.75;8.85;;;-1.40;1.00;;;;;;5098582;27;20207;-81
2022/12/14 00:31:38;;;;;;;16.75;10.38;;;-1.40;1.00;;;;;;5097476;28;20226;-81
2022/12/14 00:34:07;;;;;;;13.32;9.98;;;-1.40;1.00;;;;;;5102226;28;20241;-81
2022/12/14 00:36:36;;;;;;;17.63;10.00;;;-1.20;1.00;;;;;;5098646;28;20195;-81
2022/12/14 00:39:05;;;;;;;18.95;11.52;;;-1.20;1.00;;;;;;5104648;28;20199;-81
2022/12/14 00:41:33;;;;;;;14.63;9.60;;;-1.30;1.00;;;;;;5109261;28;20671;-81
2022/12/14 00:44:02;;;;;;;15.77;10.63;;;-1.40;1.00;;;;;;5102817;28;20243;-80
2022/12/14 00:46:30;;;;;;;15.98;10.38;;;-1.50;1.00;;;;;;5105233;27;20230;-81
2022/12/14 00:48:59;;;;;;;13.43;10.38;;;-1.60;1.00;;;;;;5105226;27;20221;-80
2022/12/14 00:51:27;;;;;;;17.73;12.18;;;-1.30;1.00;;;;;;5106693;28;20204;-81
2022/12/14 00:53:56;;;;;;;17.48;11.13;;;-1.30;1.00;;;;;;5103886;28;20556;-81
2022/12/14 00:56:24;;;;;;;17.45;10.90;;;-1.60;1.00;;;;;;5104538;27;20241;-80
2022/12/14 00:58:52;;;;;;;19.42;12.13;;;-1.70;1.00;;;;;;5110616;28;20298;-80
2022/12/14 01:01:22;;;;;;;16.05;11.90;;;-1.60;99.90;;;;;;5105829;27;20201;-81
2022/12/14 01:04:15;;;;;;;14.35;11.50;;;-1.50;1.00;;;;;;5108483;28;20306;-83
2022/12/14 01:06:39;;;;;;;16.80;10.80;;;-1.50;1.00;;;;;;5092482;27;20291;-82
2022/12/14 01:09:07;;;;;;;14.93;10.57;;;-1.60;32.70;;;;;;5097535;28;20200;-79
2022/12/14 01:11:35;;;;;;;17.40;12.27;;;-1.50;99.90;;;;;;5106903;28;20467;-80
2022/12/14 01:14:04;;;;;;;16.33;10.68;;;-1.40;99.90;;;;;;5110525;28;20227;-81
2022/12/14 01:16:34;;;;;;;14.82;10.30;;;-1.30;60.60;;;;;;5101318;27;20216;-80
2022/12/14 01:19:02;;;;;;;15.85;10.15;;;-1.20;1.00;;;;;;5122379;27;20229;-79
2022/12/14 01:21:31;;;;;;;16.98;10.65;;;-1.30;23.20;;;;;;5107142;27;20203;-79
2022/12/14 01:24:01;;;;;;;13.50;10.07;;;-1.60;99.90;;;;;;5100598;28;20245;-80
2022/12/14 01:26:32;;;;;;;15.85;10.15;;;-1.60;99.90;;;;;;5108534;27;20204;-79
2022/12/14 01:29:00;;;;;;;11.13;9.40;;;-1.60;99.90;;;;;;5101503;28;20211;-80
2022/12/14 01:31:30;;;;;;;15.65;10.15;;;-1.60;99.90;;;;;;5101036;28;20207;-82
2022/12/14 01:34:00;;;;;;;18.83;11.80;;;-1.50;99.90;;;;;;5115067;28;20212;-82
2022/12/14 01:36:30;;;;;;;17.27;11.93;;;-1.40;99.90;;;;;;5110152;28;20223;-80
2022/12/14 01:39:00;;;;;;;15.18;10.70;;;-1.40;99.90;;;;;;5100810;28;20226;-80
2022/12/14 01:41:30;;;;;;;16.88;11.18;;;-1.20;99.90;;;;;;5118362;27;20187;-80
2022/12/14 01:44:01;;;;;;;13.73;10.93;;;-1.20;99.90;;;;;;5100190;28;20254;-79
2022/12/14 01:46:33;;;;;;;17.85;11.18;;;-1.30;99.90;;;;;;5096942;27;20264;-80
2022/12/14 01:49:09;;;;;;;16.45;12.00;;;-1.40;99.90;;;;;;5096472;28;20279;-81
2022/12/14 01:51:40;;;;;;;13.30;11.68;;;-1.40;99.90;;;;;;5099653;28;20209;-79
2022/12/14 01:54:12;;;;;;;15.68;11.40;;;-1.20;99.90;;;;;;5100431;27;20961;-77
2022/12/14 01:56:43;;;;;;;12.82;10.30;;;-1.40;99.90;;;;;;5099159;27;20207;-80
2022/12/14 01:59:17;;;;;;;16.30;10.48;;;-1.30;99.90;;;;;;5096744;28;20203;-81
2022/12/14 02:01:46;;;;;;;14.02;10.23;;;-1.30;99.90;;;;;;5097814;28;20269;-79
2022/12/14 02:04:18;;;;;;;14.10;11.95;;;-1.30;99.90;;;;;;5096697;28;20300;-80
2022/12/14 02:06:49;;;;;;;15.90;10.82;;;-1.40;99.90;;;;;;5097342;28;20715;-80
2022/12/14 02:09:20;;;;;;;15.07;10.30;;;-1.40;99.90;;;;;;5089813;28;20191;-80
2022/12/14 02:11:55;;;;;;;14.32;10.07;;;-1.40;99.90;;;;;;5094791;28;20713;-79
2022/12/14 02:14:24;;;;;;;20.30;11.32;;;-1.20;99.90;;;;;;5089763;28;20234;-79
2022/12/14 02:16:54;;;;;;;18.30;11.88;;;-1.30;99.90;;;;;;5091565;28;20302;-79
2022/12/14 02:19:24;;;;;;;15.75;11.70;;;-1.30;99.90;;;;;;5101144;28;20194;-79
2022/12/14 02:22:23;;;;;;;14.27;11.00;;;-1.20;99.90;;;;;;5098935;28;20199;-78
2022/12/14 02:25:16;;;;;;;14.27;10.98;;;-1.30;99.90;;;;;;5097720;28;20219;-79
2022/12/14 02:28:03;;;;;;;16.10;11.65;;;-1.20;99.90;;;;;;5095980;28;20223;-80
2022/12/14 02:30:38;;;;;;;16.40;10.65;;;-1.10;99.90;;;;;;5104990;28;20198;-80
2022/12/14 02:33:33;;;;;;;14.82;11.25;;;-1.10;99.90;;;;;;5099934;28;20222;-80
2022/12/14 02:36:06;;;;;;;16.00;11.57;;;-1.20;99.90;;;;;;5098195;28;20682;-81
2022/12/14 02:38:49;;;;;;;13.90;11.30;;;-1.20;99.90;;;;;;5096612;28;20224;-81
2022/12/14 02:41:23;;;;;;;16.55;12.02;;;-1.30;99.90;;;;;;5104246;28;20302;-80
2022/12/14 02:44:03;;;;;;;15.48;10.63;;;-1.20;99.90;;;;;;5097037;28;20303;-80
2022/12/14 02:46:40;;;;;;;16.30;11.00;;;-1.10;99.90;;;;;;5108766;27;20192;-81
2022/12/14 02:49:20;;;;;;;16.55;12.05;;;-1.20;99.90;;;;;;5104932;28;20203;-80
2022/12/14 02:51:55;;;;;;;15.02;11.00;;;-1.30;99.90;;;;;;5109860;27;20206;-79
2022/12/14 02:54:29;;;;;;;18.63;11.05;;;-1.20;99.90;;;;;;5103892;27;20235;-80
2022/12/14 02:57:05;;;;;;;17.25;11.60;;;-1.10;99.90;;;;;;5107845;27;20207;-81
2022/12/14 02:59:33;;;;;;;19.85;12.00;;;-1.10;99.90;;;;;;5107455;28;20297;-81
2022/12/14 03:02:04;;;;;;;16.60;11.20;;;-1.20;99.90;;;;;;5100685;28;20252;-81
2022/12/14 03:04:46;;;;;;;18.33;12.18;;;-1.20;99.90;;;;;;5104141;27;20257;-81
2022/12/14 03:07:33;;;;;;;19.33;12.40;;;-1.20;99.90;;;;;;5100934;27;20210;-80
2022/12/14 03:10:08;;;;;;;16.08;10.60;;;-1.10;99.90;;;;;;5101948;27;20227;-79
2022/12/14 03:12:40;;;;;;;15.25;11.45;;;-1.10;99.90;;;;;;5105540;27;20222;-79
2022/12/14 03:15:14;;;;;;;16.85;10.85;;;-1.20;99.90;;;;;;5103441;27;20226;-81
2022/12/14 03:17:46;;;;;;;18.27;11.60;;;-1.30;99.90;;;;;;5102929;27;20206;-78
2022/12/14 03:20:21;;;;;;;16.73;10.98;;;-1.20;99.90;;;;;;5101378;28;20207;-78
2022/12/14 03:22:55;;;;;;;15.60;11.07;;;-1.30;99.90;;;;;;5100597;28;20229;-79
2022/12/14 03:25:28;;;;;;;17.92;11.52;;;-1.20;99.90;;;;;;5098586;28;20679;-78
2022/12/14 03:28:04;;;;;;;18.85;11.57;;;-1.20;99.90;;;;;;5103262;27;20187;-78
2022/12/14 03:30:35;;;;;;;15.70;11.70;;;-1.20;99.90;;;;;;5099477;27;20198;-78
2022/12/14 03:33:28;;;;;;;18.15;11.68;;;-1.00;99.90;;;;;;5101904;27;20762;-79
2022/12/14 03:36:00;;;;;;;16.00;11.43;;;-0.90;99.90;;;;;;5094702;28;20192;-79
2022/12/14 03:38:35;;;;;;;16.38;11.70;;;-1.00;99.90;;;;;;5101982;27;20231;-78
2022/12/14 03:41:19;;;;;;;17.60;12.50;;;-1.00;99.90;;;;;;5100196;27;20191;-79
2022/12/14 03:43:59;;;;;;;17.85;11.75;;;-0.90;99.90;;;;;;5099070;27;20258;-79
2022/12/14 03:46:40;;;;;;;19.70;12.52;;;-1.00;99.90;;;;;;5102717;27;20215;-79
2022/12/14 03:49:17;;;;;;;14.48;11.52;;;-1.20;99.90;;;;;;5100857;27;20210;-78
2022/12/14 03:51:57;;;;;;;19.45;12.60;;;-1.20;99.90;;;;;;5099467;28;20743;-79
2022/12/14 03:54:32;;;;;;;23.38;13.63;;;-1.20;99.90;;;;;;5099612;27;20226;-78
2022/12/14 03:57:05;;;;;;;20.73;12.10;;;-1.10;99.90;;;;;;5100387;28;20218;-79
2022/12/14 03:59:39;;;;;;;20.08;14.60;;;-0.90;99.90;;;;;;5101947;28;20212;-78
2022/12/14 04:02:14;;;;;;;18.58;12.95;;;-1.10;99.90;;;;;;5095734;27;20199;-78
2022/12/14 04:04:49;;;;;;;18.80;12.48;;;-1.00;99.90;;;;;;5103902;27;20757;-79
2022/12/14 04:07:22;;;;;;;19.33;12.02;;;-0.90;99.90;;;;;;5104837;27;20190;-78
2022/12/14 04:09:56;;;;;;;17.05;12.30;;;-0.90;99.90;;;;;;5100351;28;20198;-80
2022/12/14 04:21:08;;;;;;;22.83;13.70;;;-1.10;99.90;;;;;;5099747;28;20242;-79
2022/12/14 04:26:33;;;;;;;16.05;12.88;;;-1.00;99.90;;;;;;5103910;27;20198;-79
2022/12/14 04:31:57;;;;;;;15.57;12.00;;;-1.00;99.90;;;;;;5100323;27;20192;-78
2022/12/14 04:34:28;;;;;;;21.75;12.05;;;-1.10;99.90;;;;;;5099161;28;20219;-78
2022/12/14 04:37:02;;;;;;;20.80;12.43;;;-1.20;1.00;;;;;;5101695;27;20881;-78
2022/12/14 04:39:35;;;;;;;17.55;12.30;;;-1.00;99.90;;;;;;5099742;27;20211;-78
2022/12/14 04:42:06;;;;;;;19.10;13.30;;;-0.90;99.90;;;;;;5101644;28;20202;-78
2022/12/14 04:44:39;;;;;;;18.98;12.52;;;-0.90;99.90;;;;;;5096438;28;20276;-79
2022/12/14 04:47:10;;;;;;;19.67;13.23;;;-1.00;99.90;;;;;;5092813;28;20294;-78
2022/12/14 04:49:42;;;;;;;19.50;12.85;;;-1.10;99.90;;;;;;5097893;27;20248;-78
2022/12/14 04:52:15;;;;;;;15.40;12.02;;;-1.10;1.00;;;;;;5099538;28;20260;-77
2022/12/14 04:54:49;;;;;;;20.45;15.80;;;-0.90;1.00;;;;;;5098265;28;20498;-78
2022/12/14 04:57:25;;;;;;;19.05;13.35;;;-1.10;1.00;;;;;;5100150;27;20212;-80
2022/12/14 04:59:54;;;;;;;17.08;12.60;;;-1.00;1.00;;;;;;5094835;27;20187;-79
2022/12/14 05:02:34;;;;;;;19.83;13.50;;;-0.90;1.00;;;;;;5098368;27;20260;-79
2022/12/14 05:05:10;;;;;;;19.00;13.52;;;-1.00;1.00;;;;;;5090405;28;21008;-78
2022/12/14 05:07:50;;;;;;;19.63;13.80;;;-1.00;1.00;;;;;;5102844;27;20183;-78
2022/12/14 05:10:22;;;;;;;22.38;14.05;;;-1.00;1.00;;;;;;5096893;27;20199;-78
2022/12/14 05:12:57;;;;;;;18.63;13.15;;;-1.00;1.00;;;;;;5100499;27;20368;-78
2022/12/14 05:15:30;;;;;;;18.25;13.85;;;-0.80;38.00;;;;;;5092569;28;20187;-79
2022/12/14 05:18:02;;;;;;;16.45;12.85;;;-0.90;1.00;;;;;;5113169;27;20273;-79
2022/12/14 05:20:31;;;;;;;19.60;14.32;;;-1.00;99.90;;;;;;5097635;28;20257;-77
2022/12/14 05:23:00;;;;;;;24.65;13.45;;;-0.80;99.90;;;;;;5094028;28;20253;-77
2022/12/14 05:25:28;;;;;;;18.85;14.10;;;-0.80;99.90;;;;;;5097425;28;20272;-77
2022/12/14 05:27:57;;;;;;;21.52;13.10;;;-0.80;99.90;;;;;;5096423;28;20191;-78
2022/12/14 05:30:25;;;;;;;21.15;13.75;;;-0.80;1.00;;;;;;5090040;28;20196;-78
2022/12/14 05:32:53;;;;;;;20.35;14.18;;;-0.80;99.90;;;;;;5100606;28;20220;-79
2022/12/14 05:35:21;;;;;;;19.88;14.15;;;-0.80;99.90;;;;;;5097310;27;20286;-79
2022/12/14 05:37:50;;;;;;;20.13;13.18;;;-0.90;1.00;;;;;;5093719;27;20314;-76
2022/12/14 05:40:19;;;;;;;23.48;14.38;;;-0.90;96.20;;;;;;5100331;28;20192;-78
2022/12/14 05:42:47;;;;;;;25.65;14.13;;;-0.80;1.00;;;;;;5098302;28;20192;-78
2022/12/14 05:45:22;;;;;;;21.23;14.23;;;-0.70;99.90;;;;;;5094674;28;20205;-78
2022/12/14 05:47:50;;;;;;;19.38;13.32;;;-1.00;1.00;;;;;;5096937;28;20306;-78
2022/12/14 05:50:18;;;;;;;22.17;13.80;;;-1.00;1.00;;;;;;5094993;27;20264;-78
2022/12/14 05:52:46;;;;;;;18.40;12.70;;;-0.90;1.00;;;;;;5096150;27;20187;-78
2022/12/14 05:55:15;;;;;;;19.55;13.55;;;-0.80;99.90;;;;;;5092312;28;20215;-77
2022/12/14 05:57:44;;;;;;;22.65;15.75;;;-0.90;30.50;;;;;;5097005;28;20223;-78
2022/12/14 06:00:13;;;;;;;21.05;14.48;;;-0.90;99.90;;;;;;5099800;28;20200;-78
2022/12/14 06:02:41;;;;;;;18.83;14.00;;;-0.80;1.00;;;;;;5103954;28;20555;-79
2022/12/14 06:05:10;;;;;;;21.95;15.50;;;-0.90;1.00;;;;;;5100629;28;20227;-78
2022/12/14 06:07:38;;;;;;;17.42;13.90;;;-0.80;99.90;;;;;;5098930;28;20811;-78
2022/12/14 06:10:07;;;;;;;19.95;14.88;;;-0.80;1.00;;;;;;5098225;28;20211;-78
2022/12/14 06:12:35;;;;;;;20.35;15.30;;;-0.80;1.00;;;;;;5098056;28;20535;-79
2022/12/14 06:15:06;;;;;;;21.45;15.00;;;-0.90;99.90;;;;;;5092564;28;20574;-78
2022/12/14 06:17:34;;;;;;;25.85;16.77;;;-0.90;99.90;;;;;;5099568;28;20215;-80
2022/12/14 06:20:02;;;;;;;22.50;14.90;;;-0.90;99.90;;;;;;5097097;28;20298;-79
2022/12/14 06:22:30;;;;;;;21.75;14.70;;;-0.90;1.00;;;;;;5102172;27;21725;-79
2022/12/14 06:24:58;;;;;;;22.77;15.70;;;-0.80;1.00;;;;;;5090768;28;20234;-78
2022/12/14 06:27:26;;;;;;;19.77;15.43;;;-0.80;1.00;;;;;;5097818;28;20206;-79
2022/12/14 06:29:55;;;;;;;27.60;17.42;;;-0.80;1.00;;;;;;5095285;27;20192;-78
2022/12/14 06:32:24;;;;;;;20.80;15.63;;;-0.70;99.90;;;;;;5092400;28;20207;-79
2022/12/14 06:34:52;;;;;;;20.30;15.77;;;-0.70;1.00;;;;;;5093933;27;20460;-79
2022/12/14 06:37:20;;;;;;;27.73;16.75;;;-0.60;99.90;;;;;;5102804;27;20195;-78
2022/12/14 06:39:48;;;;;;;23.23;15.52;;;-0.60;99.90;;;;;;5097515;27;20748;-78
2022/12/14 06:42:21;;;;;;;23.95;14.38;;;-0.70;99.90;;;;;;5098821;27;20207;-78
2022/12/14 06:44:49;;;;;;;23.77;14.15;;;-0.70;99.90;;;;;;5097512;27;20269;-77
2022/12/14 06:47:18;;;;;;;21.73;15.23;;;-0.70;99.90;;;;;;5095078;28;20207;-78
2022/12/14 06:49:47;;;;;;;24.00;15.10;;;-0.60;1.00;;;;;;5097864;28;20199;-78
2022/12/14 06:52:15;;;;;;;22.17;14.60;;;-0.60;80.90;;;;;;5098387;28;20213;-79
2022/12/14 06:54:48;;;;;;;23.33;14.95;;;-0.60;75.30;;;;;;5094194;28;20295;-78
2022/12/14 06:57:17;;;;;;;21.73;15.25;;;-0.70;99.90;;;;;;5094363;27;20200;-80
2022/12/14 06:59:45;;;;;;;20.75;15.50;;;-0.80;1.00;;;;;;5096243;28;20208;-80
2022/12/14 07:02:13;;;;;;;24.38;15.00;;;-0.80;1.00;;;;;;5092243;28;20200;-78
2022/12/14 07:04:42;;;;;;;20.63;15.00;;;-0.70;99.90;;;;;;5110528;27;20220;-79
2022/12/14 07:07:11;;;;;;;23.90;17.05;;;-0.70;99.90;;;;;;5093778;28;20193;-78
2022/12/14 07:09:39;;;;;;;22.45;15.20;;;-0.60;1.00;;;;;;5102349;28;20210;-80
2022/12/14 07:12:08;;;;;;;24.65;16.50;;;-0.70;1.00;;;;;;5101508;27;20200;-79
2022/12/14 07:14:36;;;;;;;25.15;14.73;;;-0.70;1.00;;;;;;5105737;27;20230;-80
2022/12/14 07:17:04;;;;;;;20.52;14.60;;;-0.60;1.00;;;;;;5095262;28;20668;-80
2022/12/14 07:19:32;;;;;;;20.45;15.38;;;-0.60;99.90;;;;;;5096368;27;20959;-79
2022/12/14 07:22:03;;;;;;;26.88;14.85;;;-0.60;33.70;;;;;;5096860;28;20207;-78
2022/12/14 07:24:32;;;;;;;23.30;15.18;;;-0.60;1.00;;;;;;5097800;28;20306;-80
2022/12/14 07:27:00;;;;;;;23.40;15.57;;;-0.60;97.60;;;;;;5094359;28;20706;-78
2022/12/14 07:29:29;;;;;;;24.20;14.13;;;-0.50;99.90;;;;;;5096831;27;20233;-77
2022/12/14 07:32:01;;;;;;;21.35;15.18;;;-0.60;1.00;;;;;;5098050;27;20222;-77
2022/12/14 07:34:30;;;;;;;20.08;14.98;;;-0.80;1.00;;;;;;5096271;27;20226;-79
2022/12/14 07:36:58;;;;;;;22.08;15.38;;;-0.80;79.10;;;;;;5098047;28;20196;-78
2022/12/14 07:39:26;;;;;;;24.92;17.58;;;-0.80;1.00;;;;;;5092717;28;20207;-78
2022/12/14 07:41:56;;;;;;;24.17;14.90;;;-0.60;7.80;;;;;;5093538;27;20199;-79
2022/12/14 07:44:24;;;;;;;20.70;15.63;;;-0.60;99.90;;;;;;5099509;27;20219;-80
2022/12/14 07:46:53;;;;;;;18.88;14.30;;;-0.60;24.30;;;;;;5096684;27;20210;-77
2022/12/14 07:49:22;;;;;;;23.17;15.80;;;-0.60;99.90;;;;;;5098889;27;20286;-78
2022/12/14 07:51:51;;;;;;;22.02;14.70;;;-0.50;99.90;;;;;;5093396;28;20863;-79
2022/12/14 07:54:20;;;;;;;23.67;16.50;;;-0.40;99.90;;;;;;5102169;28;20250;-80
2022/12/14 07:56:48;;;;;;;23.80;16.25;;;-0.40;99.90;;;;;;5095929;27;20207;-79
2022/12/14 07:59:18;;;;;;;23.75;16.50;;;-0.50;17.10;;;;;;5090807;27;20460;-78
2022/12/14 08:01:46;;;;;;;20.92;15.45;;;-0.50;1.00;;;;;;5093221;27;20196;-78
2022/12/14 08:04:17;;;;;;;23.40;16.80;;;-0.70;1.00;;;;;;5095569;27;20243;-77
2022/12/14 08:06:46;;;;;;;23.80;16.20;;;-0.60;99.90;;;;;;5098928;28;20275;-79
2022/12/14 08:09:16;;;;;;;26.83;16.55;;;-0.60;99.90;;;;;;5095187;27;20278;-78
2022/12/14 08:11:44;;;;;;;24.50;18.08;;;-0.70;99.90;;;;;;5096892;27;20634;-80
2022/12/14 08:14:16;;;;;;;25.10;16.67;;;-0.50;99.90;;;;;;5097227;27;20298;-79
2022/12/14 08:16:46;;;;;;;24.55;16.95;;;-0.50;99.90;;;;;;5097613;28;20319;-78
2022/12/14 08:19:15;;;;;;;25.05;17.70;;;-0.40;1.00;;;;;;5096840;27;20233;-80
2022/12/14 08:21:44;;;;;;;25.60;18.38;;;-0.50;99.90;;;;;;5098920;28;20250;-79
2022/12/14 08:24:15;;;;;;;20.88;15.90;;;-0.60;99.90;;;;;;5095900;27;20250;-79
2022/12/14 08:26:44;;;;;;;26.10;17.67;;;-0.40;99.90;;;;;;5095547;27;20227;-78
2022/12/14 08:29:17;;;;;;;28.02;17.95;;;-0.40;9.80;;;;;;5098248;27;20191;-80
2022/12/14 08:31:47;;;;;;;21.70;16.67;;;-0.40;1.90;;;;;;5093741;27;20226;-76
2022/12/14 08:34:20;;;;;;;22.25;16.30;;;-0.50;1.00;;;;;;5092412;28;20239;-77
2022/12/14 08:36:49;;;;;;;30.00;18.13;;;-0.30;99.90;;;;;;5095615;28;20204;-82
2022/12/14 08:39:17;;;;;;;25.20;20.13;;;-0.30;1.00;;;;;;5093237;27;20443;-80
2022/12/14 08:41:46;;;;;;;28.00;18.65;;;-0.30;1.00;;;;;;5089947;28;20623;-79
2022/12/14 08:44:15;;;;;;;25.67;17.80;;;-0.30;94.60;;;;;;5095620;28;20230;-79
2022/12/14 08:46:44;;;;;;;25.88;17.98;;;-0.20;99.90;;;;;;5094325;27;20200;-78
2022/12/14 08:49:13;;;;;;;26.08;17.65;;;-0.20;99.90;;;;;;5097978;28;20199;-80
2022/12/14 08:51:41;;;;;;;24.52;18.92;;;-0.20;99.90;;;;;;5095701;27;20271;-82
2022/12/14 08:54:10;;;;;;;29.75;17.75;;;-0.20;99.90;;;;;;5094906;28;20212;-81
2022/12/14 08:56:38;;;;;;;28.65;18.73;;;-0.20;1.00;;;;;;5092214;28;20214;-78
2022/12/14 08:59:06;;;;;;;26.42;17.70;;;-0.20;1.00;;;;;;5088047;28;20306;-78
2022/12/14 09:01:34;;;;;;;23.10;15.52;;;-0.10;1.00;;;;;;5092937;27;20199;-78
2022/12/14 09:04:04;;;;;;;25.85;18.13;;;-0.10;1.00;;;;;;5090707;28;20216;-79
2022/12/14 09:06:36;;;;;;;31.33;19.17;;;0.00;1.00;;;;;;5093279;28;20190;-78
2022/12/14 09:09:05;;;;;;;30.65;17.45;;;-0.10;1.00;;;;;;5095610;27;20200;-77
2022/12/14 09:11:42;;;;;;;26.67;17.75;;;0.00;1.00;;;;;;5090277;27;20214;-78
2022/12/14 09:14:10;;;;;;;29.58;18.10;;;0.10;1.00;;;;;;5097558;27;20421;-79
2022/12/14 09:16:39;;;;;;;29.63;19.00;;;0.20;1.00;;;;;;5092024;28;20574;-80
2022/12/14 09:19:08;;;;;;;28.27;19.65;;;0.20;1.00;;;;;;5092374;28;20216;-79
2022/12/14 09:21:38;;;;;;;30.40;18.13;;;0.20;1.00;;;;;;5096787;27;20568;-79
2022/12/14 09:24:07;;;;;;;28.55;19.08;;;0.20;1.00;;;;;;5098272;28;20230;-79
2022/12/14 09:26:35;;;;;;;30.13;18.65;;;0.20;1.00;;;;;;5094698;28;20214;-79
2022/12/14 09:29:03;;;;;;;28.52;19.20;;;0.20;1.00;;;;;;5100205;27;20202;-80
2022/12/14 09:31:32;;;;;;;29.92;20.13;;;0.20;1.00;;;;;;5096013;27;20201;-80
2022/12/14 09:34:02;;;;;;;27.30;18.05;;;0.30;1.00;;;;;;5095784;28;20223;-78
2022/12/14 09:36:31;;;;;;;25.73;17.25;;;0.30;1.00;;;;;;5094739;28;20205;-79
2022/12/14 09:39:01;;;;;;;23.73;16.40;;;0.40;1.00;;;;;;5089238;27;20206;-78
2022/12/14 09:41:46;;;;;;;23.95;16.85;;;0.40;1.00;;;;;;5098964;28;20203;-77
2022/12/14 09:44:31;;;;;;;25.52;18.40;;;0.40;1.00;;;;;;5096928;28;20207;-79
2022/12/14 09:47:06;;;;;;;30.33;16.90;;;0.50;1.00;;;;;;5098739;28;20203;-80
2022/12/14 09:49:41;;;;;;;28.25;18.55;;;0.40;1.00;;;;;;5093046;27;20251;-79
2022/12/14 09:52:15;;;;;;;27.65;19.60;;;0.40;1.00;;;;;;5095138;28;20612;-79
2022/12/14 09:54:47;;;;;;;32.85;19.73;;;0.40;1.00;;;;;;5086787;28;20733;-80
2022/12/14 09:57:25;;;;;;;23.52;16.73;;;0.50;1.00;;;;;;5098951;28;20191;-78
2022/12/14 09:59:54;;;;;;;27.35;18.35;;;0.40;1.00;;;;;;5095624;28;20276;-80
2022/12/14 10:02:52;;;;;;;27.08;20.52;;;0.40;1.00;;;;;;5095220;28;20203;-79
2022/12/14 10:05:44;;;;;;;28.20;17.58;;;0.40;1.00;;;;;;5079869;28;20219;-78
2022/12/14 10:08:20;;;;;;;23.10;16.10;;;0.40;1.00;;;;;;5096050;28;20687;-78
2022/12/14 10:11:02;;;;;;;25.38;16.80;;;0.40;1.00;;;;;;5100094;28;20274;-80
2022/12/14 10:13:39;;;;;;;26.25;18.35;;;0.40;1.00;;;;;;5097443;28;20218;-81
2022/12/14 10:16:19;;;;;;;27.00;17.95;;;0.40;1.00;;;;;;5094172;28;20188;-79
2022/12/14 10:19:01;;;;;;;23.95;17.17;;;0.40;1.00;;;;;;5092963;28;20572;-78
2022/12/14 10:21:45;;;;;;;26.33;17.58;;;0.40;1.00;;;;;;5101939;28;20200;-80
2022/12/14 10:24:19;;;;;;;28.38;19.50;;;0.50;1.00;;;;;;5097439;28;20323;-79
2022/12/14 10:26:52;;;;;;;29.50;19.92;;;0.50;1.00;;;;;;5095150;28;20202;-80
2022/12/14 10:29:28;;;;;;;29.30;18.02;;;0.50;1.00;;;;;;5094024;28;20187;-79
2022/12/14 10:32:04;;;;;;;27.38;19.10;;;0.70;1.00;;;;;;5100771;28;20265;-79
2022/12/14 10:34:34;;;;;;;27.73;18.58;;;0.70;1.00;;;;;;5091614;28;20222;-79
2022/12/14 10:37:12;;;;;;;29.23;18.80;;;0.80;1.00;;;;;;5088832;28;20193;-78
2022/12/14 10:39:54;;;;;;;25.80;17.98;;;0.80;1.00;;;;;;5096210;28;20243;-78
2022/12/14 10:42:30;;;;;;;27.17;18.55;;;0.80;1.00;;;;;;5101930;28;20211;-79
2022/12/14 10:45:14;;;;;;;28.02;18.02;;;0.90;1.00;;;;;;5095240;28;20228;-79
2022/12/14 10:48:21;;;;;;;26.48;18.60;;;0.90;1.00;;;;;;5096333;28;21082;-80
2022/12/14 10:50:57;;;;;;;31.25;19.80;;;1.00;1.00;;;;;;5094546;28;20219;-81
2022/12/14 10:53:31;;;;;;;24.33;17.95;;;1.00;1.00;;;;;;5091269;28;20215;-79
2022/12/14 10:56:14;;;;;;;28.88;19.15;;;0.90;1.00;;;;;;5094190;28;20192;-80
2022/12/14 10:58:44;;;;;;;29.70;19.63;;;0.90;1.00;;;;;;5091389;28;21040;-79
2022/12/14 11:01:14;;;;;;;27.08;17.92;;;0.90;11.00;;;;;;5094625;28;20286;-79
2022/12/14 11:03:48;;;;;;;29.35;19.52;;;1.10;9.80;;;;;;5098726;28;20223;-79
2022/12/14 11:06:20;;;;;;;25.05;18.80;;;1.10;1.80;;;;;;5094358;28;20268;-78
2022/12/14 11:08:49;;;;;;;27.75;19.92;;;1.10;1.00;;;;;;5101377;28;20256;-78
2022/12/14 11:11:21;;;;;;;33.40;21.70;;;1.10;1.00;;;;;;5095774;28;20204;-80
2022/12/14 11:13:53;;;;;;;32.13;20.85;;;1.10;1.00;;;;;;5099554;28;20226;-79
2022/12/14 11:16:27;;;;;;;29.50;21.80;;;1.00;1.00;;;;;;5100739;27;20679;-78
2022/12/14 11:19:04;;;;;;;29.48;18.90;;;1.00;1.00;;;;;;5102927;27;20204;-81
2022/12/14 11:21:34;;;;;;;27.92;20.35;;;1.00;12.00;;;;;;5093602;27;20216;-79
2022/12/14 11:24:04;;;;;;;31.77;22.13;;;1.10;4.60;;;;;;5097058;28;20257;-80
2022/12/14 11:26:37;;;;;;;28.80;22.60;;;1.20;1.00;;;;;;5098171;27;20303;-79
2022/12/14 11:29:17;;;;;;;30.27;20.10;;;1.20;1.00;;;;;;5104865;28;20194;-79
2022/12/14 11:31:48;;;;;;;33.65;23.83;;;1.20;1.00;;;;;;5091257;27;20262;-76
2022/12/14 11:34:25;;;;;;;30.17;21.58;;;1.30;1.00;;;;;;5096708;27;20217;-79
2022/12/14 11:36:53;;;;;;;35.20;22.52;;;1.20;1.00;;;;;;5094350;28;20200;-79
2022/12/14 11:39:24;;;;;;;28.15;20.10;;;1.20;5.00;;;;;;5095600;27;20204;-78
2022/12/14 11:42:00;;;;;;;27.95;19.13;;;1.30;13.00;;;;;;5094636;28;20254;-78
2022/12/14 11:44:33;;;;;;;32.58;21.63;;;1.30;1.00;;;;;;5091172;28;20227;-79
2022/12/14 11:47:04;;;;;;;37.78;21.67;;;1.30;3.80;;;;;;5090729;28;20196;-77
2022/12/14 11:49:41;;;;;;;29.02;19.90;;;1.40;1.60;;;;;;5095321;27;20202;-79
2022/12/14 11:52:12;;;;;;;30.60;20.50;;;1.30;1.00;;;;;;5102905;27;20251;-79
2022/12/14 11:54:42;;;;;;;31.98;21.20;;;1.40;2.20;;;;;;5101555;27;20223;-79
2022/12/14 11:57:28;;;;;;;26.95;19.98;;;1.40;12.30;;;;;;5100273;27;20196;-79
2022/12/14 12:00:01;;;;;;;29.38;20.30;;;1.50;4.20;;;;;;5098756;27;20210;-80
2022/12/14 12:02:34;;;;;;;29.33;20.27;;;1.50;1.10;;;;;;5095639;28;20193;-78
2022/12/14 12:05:07;;;;;;;32.40;23.48;;;1.50;10.10;;;;;;5096365;28;20232;-80
2022/12/14 12:07:38;;;;;;;29.33;21.75;;;1.50;4.80;;;;;;5097810;28;20200;-79
2022/12/14 12:10:16;;;;;;;30.67;22.73;;;1.60;2.00;;;;;;5096557;28;20207;-80
2022/12/14 12:12:53;;;;;;;31.42;20.70;;;1.70;1.00;;;;;;5094274;28;20204;-80
2022/12/14 12:15:30;;;;;;;33.83;21.60;;;1.70;1.00;;;;;;5099634;28;20231;-80
2022/12/14 12:18:03;;;;;;;28.13;19.20;;;1.70;1.00;;;;;;5099538;28;20213;-79
2022/12/14 12:20:35;;;;;;;34.83;22.55;;;1.80;1.00;;;;;;5091271;28;20556;-81
2022/12/14 12:23:11;;;;;;;30.33;21.45;;;1.70;1.00;;;;;;5092751;28;20209;-79
2022/12/14 12:25:42;;;;;;;28.50;21.40;;;1.60;1.00;;;;;;5099944;28;20228;-78
2022/12/14 12:28:16;;;;;;;29.73;20.55;;;1.70;10.70;;;;;;5094050;27;20665;-78
2022/12/14 12:30:50;;;;;;;33.33;21.10;;;1.70;8.10;;;;;;5101522;28;20200;-79
2022/12/14 12:33:27;;;;;;;35.10;21.23;;;1.70;15.20;;;;;;5091892;28;20223;-78
2022/12/14 12:35:59;;;;;;;31.13;20.52;;;1.80;20.00;;;;;;5093622;28;20201;-79
2022/12/14 12:38:46;;;;;;;36.15;22.17;;;1.80;16.00;;;;;;5094056;27;20598;-80
2022/12/14 12:41:27;;;;;;;28.48;21.02;;;1.80;22.20;;;;;;5100902;27;20624;-80
2022/12/14 12:44:00;;;;;;;34.58;23.98;;;1.90;12.10;;;;;;5093752;28;20224;-78
2022/12/14 12:46:33;;;;;;;32.20;22.08;;;1.90;12.40;;;;;;5092713;28;20204;-78
2022/12/14 12:49:22;;;;;;;34.85;22.25;;;1.90;15.10;;;;;;5092114;27;20203;-80
2022/12/14 12:51:54;;;;;;;36.20;22.85;;;1.90;28.60;;;;;;5097638;28;20184;-79
2022/12/14 12:54:28;;;;;;;30.55;21.35;;;1.90;32.00;;;;;;5095108;28;20226;-79
2022/12/14 12:56:59;;;;;;;35.25;22.08;;;1.90;28.60;;;;;;5101580;27;20217;-79
2022/12/14 12:59:36;;;;;;;29.20;20.67;;;1.90;32.20;;;;;;5096430;27;20280;-78
2022/12/14 13:02:20;;;;;;;36.95;23.10;;;2.00;16.80;;;;;;5092240;28;20213;-78
2022/12/14 13:04:52;;;;;;;33.78;22.08;;;1.90;17.90;;;;;;5096306;28;20219;-78
2022/12/14 13:07:28;;;;;;;38.42;24.75;;;2.00;15.40;;;;;;5095864;28;20673;-79
2022/12/14 13:10:00;;;;;;;34.72;25.27;;;2.00;2.10;;;;;;5098563;28;20200;-79
2022/12/14 13:12:37;;;;;;;37.47;25.25;;;2.00;1.00;;;;;;5101115;28;20232;-80
2022/12/14 13:15:14;;;;;;;31.77;23.92;;;2.00;1.00;;;;;;5102595;28;20228;-77
2022/12/14 13:17:48;;;;;;;29.75;21.40;;;1.90;1.00;;;;;;5105042;28;20454;-78